createdAt,value
2022-12-15T00:01:53.369Z,122.00
2022-12-15T00:07:18.751Z,109.50
2022-12-15T00:12:47.120Z,90.10
2022-12-15T00:18:12.477Z,90.50
2022-12-15T00:23:39.813Z,82.60
2022-12-15T00:29:05.160Z,86.50
2022-12-15T00:34:30.572Z,74.80
2022-12-15T00:39:37.641Z,66.20
2022-12-15T00:44:44.608Z,74.50
2022-12-15T00:50:09.826Z,75.40
2022-12-15T00:55:34.431Z,77.70
2022-12-15T01:00:59.042Z,79.60
2022-12-15T01:06:27.692Z,81.50
2022-12-15T01:11:52.392Z,82.40
2022-12-15T01:17:17.048Z,85.20
2022-12-15T01:22:24.942Z,73.50
2022-12-15T01:27:32.536Z,72.20
2022-12-15T01:32:45.659Z,82.60
2022-12-15T01:37:53.316Z,82.70
2022-12-15T01:43:00.256Z,89.00
2022-12-15T01:48:10.600Z,85.90
2022-12-15T01:53:19.417Z,90.50
2022-12-15T01:58:26.870Z,86.70
2022-12-15T02:03:35.153Z,83.30
2022-12-15T02:08:45.762Z,80.10
2022-12-15T02:14:01.398Z,85.60
2022-12-15T02:19:29.009Z,87.00
2022-12-15T02:24:59.850Z,92.10
2022-12-15T02:30:26.946Z,93.70
2022-12-15T02:35:46.439Z,94.20
2022-12-15T02:41:00.728Z,89.70
2022-12-15T02:46:19.665Z,90.00
2022-12-15T02:51:44.907Z,95.50
2022-12-15T02:57:06.154Z,92.50
2022-12-15T03:02:16.369Z,88.30
2022-12-15T03:07:27.915Z,82.10
2022-12-15T03:12:34.908Z,78.70
2022-12-15T03:17:42.010Z,82.40
2022-12-15T03:22:49.331Z,78.30
2022-12-15T03:27:56.291Z,73.40
2022-12-15T03:33:03.276Z,71.40
2022-12-15T03:38:10.296Z,76.90
2022-12-15T03:43:17.433Z,72.10
2022-12-15T03:48:24.481Z,72.70
2022-12-15T03:53:31.697Z,70.60
2022-12-15T03:58:38.910Z,65.90
2022-12-15T04:03:45.945Z,72.80
2022-12-15T04:08:52.950Z,67.00
2022-12-15T04:13:59.834Z,66.50
2022-12-15T04:19:24.769Z,67.30
2022-12-15T04:24:50.090Z,68.20
2022-12-15T04:30:15.054Z,69.20
2022-12-15T04:35:40.034Z,69.00
2022-12-15T04:41:05.057Z,62.00
2022-12-15T04:46:29.772Z,65.20
2022-12-15T04:51:55.168Z,64.60
2022-12-15T04:57:19.902Z,58.00
2022-12-15T05:02:44.810Z,60.70
2022-12-15T05:08:09.723Z,65.10
2022-12-15T05:13:34.628Z,64.50
2022-12-15T05:19:00.276Z,68.30
2022-12-15T05:24:25.499Z,68.50
2022-12-15T05:29:50.378Z,69.00
2022-12-15T05:34:57.361Z,65.90
2022-12-15T05:40:04.652Z,64.00
2022-12-15T05:45:12.934Z,64.50
2022-12-15T05:50:20.058Z,62.50
2022-12-15T05:55:30.318Z,66.10
2022-12-15T06:00:38.025Z,61.40
2022-12-15T06:05:44.988Z,64.00
2022-12-15T06:10:56.417Z,57.30
2022-12-15T06:16:05.938Z,54.40
2022-12-15T06:21:14.559Z,58.10
2022-12-15T06:26:25.547Z,54.70
2022-12-15T06:31:34.387Z,61.40
2022-12-15T06:36:41.938Z,53.30
2022-12-15T06:41:48.865Z,59.00
2022-12-15T06:46:56.131Z,67.60
2022-12-15T06:52:03.525Z,67.80
2022-12-15T06:57:10.437Z,63.70
2022-12-15T07:02:25.198Z,66.70
2022-12-15T07:07:35.491Z,68.30
2022-12-15T07:12:42.452Z,63.00
2022-12-15T07:17:51.056Z,58.00
2022-12-15T07:23:00.716Z,57.80
2022-12-15T07:28:08.483Z,57.60
2022-12-15T07:33:15.865Z,54.60
2022-12-15T07:38:23.109Z,60.30
2022-12-15T07:43:31.941Z,61.30
2022-12-15T07:48:40.555Z,56.40
2022-12-15T07:53:47.570Z,53.00
2022-12-15T07:58:54.805Z,50.00
2022-12-15T08:04:01.933Z,49.10
2022-12-15T08:09:09.240Z,49.30
2022-12-15T08:14:17.872Z,46.20
2022-12-15T08:19:25.658Z,42.50
2022-12-15T08:24:32.603Z,32.70
2022-12-15T08:29:55.071Z,26.60
2022-12-15T08:40:09.767Z,26.10
2022-12-15T08:45:16.729Z,28.20
2022-12-15T08:50:23.686Z,29.30
2022-12-15T08:55:30.970Z,30.20
2022-12-15T09:00:37.876Z,24.00
2022-12-15T09:05:44.824Z,29.10
2022-12-15T09:10:52.683Z,29.20
2022-12-15T09:16:10.434Z,28.10
2022-12-15T09:21:26.192Z,27.10
2022-12-15T09:26:34.987Z,22.20
2022-12-15T09:31:44.839Z,22.70
2022-12-15T09:36:52.164Z,21.20
2022-12-15T09:42:02.321Z,20.40
2022-12-15T09:47:18.796Z,20.90
2022-12-15T09:52:29.976Z,21.30
2022-12-15T09:57:41.482Z,22.10
2022-12-15T10:03:30.601Z,23.00
2022-12-15T10:08:40.981Z,23.10
2022-12-15T10:13:57.993Z,26.00
2022-12-15T10:19:15.526Z,23.90
2022-12-15T10:29:57.670Z,23.30
2022-12-15T10:35:08.713Z,22.90
2022-12-15T10:40:40.560Z,22.20
2022-12-15T10:45:47.563Z,19.30
2022-12-15T10:51:16.004Z,20.60
2022-12-15T10:56:33.325Z,22.20
2022-12-15T11:01:41.202Z,22.00
2022-12-15T11:06:48.542Z,26.70
2022-12-15T11:12:14.669Z,24.30
2022-12-15T11:17:23.202Z,24.80
2022-12-15T11:22:38.907Z,22.30
2022-12-15T11:27:48.584Z,25.20
2022-12-15T11:33:00.222Z,24.20
2022-12-15T11:38:14.278Z,22.40
2022-12-15T11:43:52.335Z,24.80
2022-12-15T11:49:25.458Z,22.00
2022-12-15T11:54:40.206Z,20.40
2022-12-15T12:00:04.055Z,21.00
2022-12-15T12:05:37.084Z,24.20
2022-12-15T12:10:52.616Z,21.50
2022-12-15T12:16:12.678Z,22.30
2022-12-15T12:21:25.626Z,23.40
2022-12-15T12:26:38.965Z,20.00
2022-12-15T12:37:33.317Z,23.90
2022-12-15T12:42:47.380Z,21.50
2022-12-15T12:48:01.729Z,22.80
2022-12-15T12:53:24.833Z,23.50
2022-12-15T12:58:39.248Z,20.10
2022-12-15T13:03:46.774Z,18.10
2022-12-15T13:08:56.108Z,20.70
2022-12-15T13:14:04.688Z,19.40
2022-12-15T13:19:12.063Z,20.00
2022-12-15T13:24:31.568Z,20.70
2022-12-15T13:29:54.574Z,22.30
2022-12-15T13:35:16.456Z,20.10
2022-12-15T13:40:51.755Z,20.00
2022-12-15T13:46:03.611Z,19.60
2022-12-15T13:51:23.444Z,19.80
2022-12-15T13:56:56.083Z,19.70
2022-12-15T14:02:03.265Z,21.70
2022-12-15T14:07:10.822Z,21.50
2022-12-15T14:12:17.785Z,23.00
2022-12-15T14:17:24.806Z,24.20
2022-12-15T14:22:32.770Z,24.70
2022-12-15T14:27:39.686Z,25.50
2022-12-15T14:32:49.719Z,23.90
2022-12-15T14:37:59.604Z,27.90
2022-12-15T14:43:10.297Z,31.70
2022-12-15T14:48:41.087Z,26.60
2022-12-15T14:53:53.165Z,25.20
2022-12-15T14:59:04.796Z,24.70
2022-12-15T15:03:03.892Z,23.90
2022-12-15T15:03:09.637Z,24.20
2022-12-15T15:04:29.283Z,22.70
2022-12-15T15:09:42.493Z,47.00
2022-12-15T15:14:52.932Z,61.20
2022-12-15T15:20:03.253Z,85.20
2022-12-15T15:25:40.860Z,59.20
2022-12-15T15:30:49.948Z,52.30
2022-12-15T15:35:59.367Z,52.10
2022-12-15T15:41:19.526Z,40.40
2022-12-15T15:46:29.508Z,37.60
2022-12-15T15:51:38.064Z,34.00
2022-12-15T15:56:45.523Z,35.70
2022-12-15T16:01:56.119Z,36.00
2022-12-15T16:07:05.855Z,34.80
2022-12-15T16:12:27.700Z,35.20
2022-12-15T16:17:34.996Z,38.20
2022-12-15T16:22:42.996Z,33.40
2022-12-15T16:27:59.098Z,33.50
2022-12-15T16:33:14.199Z,31.80
2022-12-15T16:38:26.879Z,27.40
2022-12-15T16:43:38.088Z,31.30
2022-12-15T16:48:46.489Z,39.20
2022-12-15T16:53:53.650Z,48.10
2022-12-15T16:59:32.654Z,46.40
2022-12-15T17:04:28.613Z,53.60
2022-12-15T17:09:41.088Z,50.10
2022-12-15T17:14:50.550Z,52.70
2022-12-15T17:20:28.090Z,59.30
2022-12-15T17:26:18.070Z,51.30
2022-12-15T17:31:05.893Z,52.10
2022-12-15T17:36:23.571Z,51.70
2022-12-15T17:42:32.211Z,43.10
2022-12-15T17:47:44.866Z,53.60
2022-12-15T17:53:05.510Z,57.80
2022-12-15T17:58:25.490Z,61.20
2022-12-15T18:03:41.602Z,72.90
2022-12-15T18:08:54.891Z,69.70
2022-12-15T18:14:04.894Z,67.20
2022-12-15T18:19:27.022Z,70.60
2022-12-15T18:30:40.265Z,88.80
2022-12-15T18:36:19.945Z,92.10
2022-12-15T18:41:57.500Z,89.40
2022-12-15T18:47:31.517Z,93.40
2022-12-15T18:52:50.505Z,102.30
2022-12-15T18:58:21.464Z,107.70
2022-12-15T19:04:06.768Z,120.70
2022-12-15T19:09:38.602Z,123.70
2022-12-15T19:14:51.030Z,117.40
2022-12-15T19:20:26.008Z,106.70
2022-12-15T19:26:23.205Z,148.90
2022-12-15T19:37:09.037Z,137.80
2022-12-15T19:42:25.519Z,138.00
2022-12-15T19:48:02.410Z,135.10
2022-12-15T19:53:28.227Z,125.90
2022-12-15T19:58:42.408Z,129.30
2022-12-15T20:03:57.005Z,142.90
2022-12-15T20:09:30.992Z,134.90
2022-12-15T20:14:41.473Z,121.60
2022-12-15T20:19:52.714Z,129.50
2022-12-15T20:25:09.146Z,127.60
2022-12-15T20:30:26.319Z,120.20
2022-12-15T20:35:46.980Z,118.50
2022-12-15T20:41:11.355Z,112.80
2022-12-15T20:46:42.271Z,105.20
2022-12-15T20:57:39.325Z,112.30
2022-12-15T21:02:55.315Z,122.30
2022-12-15T21:08:18.791Z,142.40
2022-12-15T21:13:40.041Z,137.30
2022-12-15T21:19:19.939Z,140.40
2022-12-15T21:24:58.544Z,145.70
2022-12-15T21:30:26.491Z,131.60
2022-12-15T21:35:36.554Z,144.40
2022-12-15T21:54:19.291Z,123.30
2022-12-15T22:00:19.849Z,123.00
2022-12-15T22:06:22.342Z,118.80
2022-12-15T22:19:59.193Z,110.50
2022-12-15T22:26:25.026Z,106.90
2022-12-15T22:32:05.509Z,107.40
2022-12-15T22:38:25.337Z,108.20
2022-12-15T22:44:35.496Z,107.30
2022-12-15T22:57:11.611Z,105.00
2022-12-15T23:08:44.552Z,114.90
2022-12-15T23:14:52.481Z,121.80
2022-12-15T23:27:46.000Z,115.30
2022-12-15T23:34:05.714Z,119.50
2022-12-15T23:40:09.535Z,111.00
2022-12-15T23:45:52.621Z,112.30
2022-12-15T23:51:48.523Z,121.60
2022-12-15T23:57:44.932Z,116.00
